SASJ/JUJ METAR and TAF weather

Enter ICAO airport designator
Station Type Date Time Source
SASJ METAR 2021/09/24 05:00 UTC NOAA

SASJ 240500Z 33004KT CAVOK 13/03 Q1023


Station Type Date Time Source
SASJ Decoded METAR 2021/09/24 05:00 UTC NOAA

Jujuy Aerodrome, Argentina (SASJ) 24-23S 065-05W 905M
Sep 24, 2021 - 01:00 AM EDT / 2021.09.24 0500 UTC
Wind: from the NNW (330 degrees) at 5 MPH (4 KT):0
Visibility: greater than 7 mile(s):0
Temperature: 55 F (13 C)
Dew Point: 37 F (3 C)
Relative Humidity: 50%
Pressure (altimeter): 30.21 in. Hg (1023 hPa)
ob: SASJ 240500Z 33004KT CAVOK 13/03 Q1023
cycle: 5

Station Type Date Time Source
SASJ TAF 2021/09/24 06:06 UTC NOAA

TAF SASJ 240500Z 2406/2506 32005KT CAVOK TX27/2418Z TN10/2410Z
BECMG 2414/2416 05015KT

Example: see airport list